• Join FlightAware (Why Join?)
  • Login
  • US Flag 
04:37PM EDT


 

Airport Tracker/Info


-or-


 

Live Flight TrackerFlight Track Log ✈ C-GECT ✈ 16-Jun-2013 ✈ CYFJ / YTM - CYTZ

Flight Track Log - Related Links

Times and Time Zones

All times are in EDT time to prevent confusion due to time zone crossing. See the C-GECT flight status page for this flight to view local times or setup timezone preferences in your user account.

Time Position Orientation Groundspeed Altitude Reporting Facility
EDT Latitude Longitude Course Direction KTS MPH feet Rate Location/Type
04:29PM 46.3833 -74.8167 226° Southwest 150 173 4,500  Level Montreal Center
04:30PM 46.3500 -74.8667 226° Southwest 150 173 6,200 1,560 Climbing Montreal Center
04:31PM 46.3167 -74.9000 215° Southwest 160 184 7,700 1,560 Climbing Montreal Center
04:32PM 46.2667 -74.9167 193° South 160 184 9,400 1,560 Climbing Montreal Center
04:33PM 46.2500 -74.9667 244° Southwest 160 184 10,900 1,500 Climbing Montreal Center
04:34PM 46.2167 -75.0000 215° Southwest 160 184 12,500 1,500 Climbing Montreal Center
04:35PM 46.1833 -75.0167 199° South 160 184 14,000 1,500 Climbing Montreal Center
04:36PM 46.1333 -75.0667 215° Southwest 160 184 15,500 1,440 Climbing Montreal Center
04:37PM 46.1000 -75.1000 215° Southwest 160 184 16,900 1,380 Climbing Montreal Center
04:38PM 46.0667 -75.1167 199° South 160 184 18,300 1,320 Climbing Montreal Center
04:39PM 46.0167 -75.1667 215° Southwest 160 184 19,600 1,200 Climbing Montreal Center
04:40PM 45.9833 -75.2000 215° Southwest 170 196 20,800 1,140 Climbing Montreal Center
04:41PM 45.9500 -75.2167 199° South 170 196 21,900 1,080 Climbing Montreal Center
04:42PM 45.9000 -75.2667 215° Southwest 160 184 23,000 1,020 Climbing Montreal Center
04:43PM 45.8667 -75.3000 215° Southwest 160 184 24,000 480 Climbing Montreal Center
04:44PM 45.8333 -75.3167 199° South 170 196 24,000  Level Montreal Center
04:45PM 45.7833 -75.3667 215° Southwest 190 219 24,000  Level Montreal Center
04:46PM 45.7333 -75.4167 215° Southwest 200 230 24,000  Level Montreal Center
04:47PM 45.6833 -75.4333 193° South 200 230 24,000  Level Montreal Center
04:48PM 45.6333 -75.4833 215° Southwest 210 242 24,000  Level Montreal Center
04:49PM 45.5833 -75.5333 215° Southwest 210 242 24,000  Level Montreal Center
04:50PM 45.5333 -75.5833 215° Southwest 210 242 24,000  Level Montreal Center
04:51PM 45.4833 -75.6333 215° Southwest 210 242 24,000  Level Montreal Center
04:52PM 45.4167 -75.6500 190° South 210 242 24,000  Level Montreal Center
04:53PM 45.3667 -75.7000 215° Southwest 220 253 24,000  Level Montreal Center
04:54PM 45.3000 -75.7500 208° Southwest 220 253 24,000  Level Montreal Center
04:55PM 45.2500 -75.8000 215° Southwest 220 253 24,000  Level Montreal Center
04:56PM 45.2000 -75.8500 215° Southwest 220 253 24,000  Level Montreal Center
04:57PM 45.1500 -75.9000 215° Southwest 220 253 24,000  Level Montreal Center
04:58PM 45.1000 -75.9167 193° South 220 253 24,000  Level Montreal Center
04:59PM 45.0500 -75.9667 215° Southwest 220 253 24,000  Level Montreal Center
05:00PM 45.0000 -76.0167 215° Southwest 220 253 24,000  Level Montreal Center
05:01PM 44.9333 -76.0667 208° Southwest 220 253 24,000  Level Montreal Center
05:02PM 44.8833 -76.1167 215° Southwest 220 253 24,000  Level Montreal Center
05:03PM 44.8333 -76.1500 205° Southwest 220 253 24,000  Level Montreal Center
05:04PM 44.7833 -76.1833 205° Southwest 220 253 24,000  Level Montreal Center
05:05PM 44.7333 -76.2500 223° Southwest 220 253 24,000  Level Montreal Center
05:06PM 44.7000 -76.3000 227° Southwest 210 242 24,000  Level Montreal Center
05:07PM 44.6500 -76.3667 223° Southwest 210 242 24,000  Level Montreal Center
05:08PM 44.6167 -76.4167 227° Southwest 210 242 24,000  Level Montreal Center
05:09PM 44.6000 -76.4167 180° South 210 242 24,000  Level Toronto Center
05:10PM 44.5500 -76.4667 215° Southwest 210 242 24,000  Level Toronto Center
05:11PM 44.5000 -76.5500 230° Southwest 210 242 24,000  Level Toronto Center
05:12PM 44.4667 -76.6000 227° Southwest 210 242 24,000  Level Toronto Center
05:12PM 44.4500 -76.6500 245° Southwest 210 242 24,000  Level Montreal Center
05:13PM 44.4000 -76.7167 224° Southwest 210 242 24,000  Level Montreal Center
05:14PM 44.3667 -76.7667 227° Southwest 210 242 24,000  Level Montreal Center
05:15PM 44.3500 -76.7667 180° South 210 242 24,000  Level Toronto Center
05:16PM 44.3000 -76.8333 224° Southwest 210 242 24,000  Level Toronto Center
05:17PM 44.2667 -76.8833 227° Southwest 210 242 24,000  Level Toronto Center
05:18PM 44.2167 -76.9500 224° Southwest 210 242 24,000  Level Toronto Center
05:19PM 44.1833 -77.0000 227° Southwest 210 242 24,000  Level Toronto Center
05:20PM 44.1333 -77.0500 216° Southwest 210 242 24,000  Level Toronto Center
05:21PM 44.1000 -77.1167 235° Southwest 210 242 24,000  Level Toronto Center
05:22PM 44.0500 -77.1667 216° Southwest 210 242 24,000  Level Toronto Center
05:23PM 44.0000 -77.2500 230° Southwest 210 242 24,000  Level Toronto Center
05:24PM 43.9667 -77.3000 227° Southwest 210 242 24,000  Level Toronto Center
05:25PM 43.9333 -77.3667 235° Southwest 210 242 24,000  Level Toronto Center
05:26PM 43.9333 -77.4333 270° West 190 219 24,000  Level Toronto Center
05:27PM 43.9167 -77.5000 251° West 190 219 24,000  Level Toronto Center
05:28PM 43.9000 -77.5667 251° West 190 219 24,000 -180 Level Toronto Center
05:29PM 43.8833 -77.6167 245° Southwest 190 219 23,700 -720 Descending Toronto Center
05:30PM 43.8500 -77.7167 245° Southwest 200 230 22,600 -1,140 Descending Toronto Center
05:31PM 43.8333 -77.7833 251° West 210 242 21,500 -1,200 Descending Toronto Center
05:32PM 43.8167 -77.8833 257° West 220 253 20,300 -1,200 Descending Toronto Center
05:33PM 43.7833 -77.9500 235° Southwest 230 265 19,100 -1,380 Descending Toronto Center
05:34PM 43.7667 -78.0333 255° West 230 265 17,600 -1,260 Descending Toronto Center
05:35PM 43.7500 -78.1167 255° West 230 265 16,600 -1,140 Descending Toronto Center
05:36PM 43.7333 -78.2000 255° West 240 276 15,400 -1,260 Descending Toronto Center
05:37PM 43.7000 -78.3000 245° Southwest 250 288 14,100 -1,320 Descending Toronto Center
05:38PM 43.7000 -78.3833 270° West 250 288 12,800 -1,380 Descending Toronto Center
05:39PM 43.6833 -78.4833 257° West 250 288 11,400 -1,320 Descending Toronto Center
05:40PM 43.7000 -78.5667 285° West 240 276 10,200 -1,260 Descending Toronto Center
05:41PM 43.6833 -78.6667 257° West 240 276 8,900 -1,260 Descending Toronto Center
05:42PM 43.6833 -78.7500 270° West 240 276 7,700 -1,200 Descending Toronto Center
05:43PM 43.6667 -78.8500 257° West 230 265 6,500 -1,200 Descending Toronto Center
05:44PM 43.6667 -78.9333 270° West 220 253 5,300 -1,080 Descending Toronto Center
05:45PM 43.6667 -79.0167 270° West 220 253 4,400 -780 Descending Toronto Center
05:47PM 43.6500 -79.1667 261° West 200 230 3,100 -600 Descending Toronto Center
05:48PM 43.6333 -79.2167 245° Southwest 160 184 2,600 -600 Descending Toronto Center
05:49PM 43.6333 -79.2833 270° West 150 173 2,000 -780 Descending Toronto Center
05:50PM 43.6333 -79.3333 270° West 130 150 1,100 -780 Descending Toronto Center
05:51PM 43.6167 -79.3833 245° Southwest 110 127 500 -600 Descending Toronto Center